createdAt,value
2023-05-10T04:06:26.350Z,1006.22
2023-05-10T04:08:10.606Z,1006.26
2023-05-10T04:09:55.641Z,1006.19
2023-05-10T04:11:40.627Z,1006.21
2023-05-10T04:13:25.601Z,1006.26
2023-05-10T04:15:10.632Z,1006.29
2023-05-10T04:16:55.647Z,1006.29
2023-05-10T04:18:40.615Z,1006.39
2023-05-10T04:20:26.550Z,1006.36
2023-05-10T04:22:10.695Z,1006.4
2023-05-10T04:23:55.633Z,1006.33
2023-05-10T04:25:40.626Z,1006.35
2023-05-10T04:27:25.945Z,1006.42
2023-05-10T04:29:10.593Z,1006.35
2023-05-10T04:30:55.640Z,1006.38
2023-05-10T04:32:40.644Z,1006.37
2023-05-10T04:34:25.623Z,1006.35
2023-05-10T04:36:10.620Z,1006.3
2023-05-10T04:37:55.670Z,1006.37
2023-05-10T04:39:42.268Z,1006.33
2023-05-10T04:41:25.695Z,1006.39
2023-05-10T04:43:10.646Z,1006.37
2023-05-10T04:44:55.657Z,1006.35
2023-05-10T04:46:41.003Z,1006.36
2023-05-10T04:48:25.672Z,1006.41
2023-05-10T04:50:10.950Z,1006.38
2023-05-10T04:51:55.721Z,1006.41
2023-05-10T04:53:41.819Z,1006.47
2023-05-10T04:55:25.671Z,1006.3
2023-05-10T04:57:10.721Z,1006.43
2023-05-10T04:58:55.658Z,1006.53
2023-05-10T05:00:40.649Z,1006.56
2023-05-10T05:02:25.810Z,1006.49
2023-05-10T05:04:10.669Z,1006.45
2023-05-10T05:05:55.689Z,1006.52
2023-05-10T05:07:40.719Z,1006.44
2023-05-10T05:09:25.696Z,1006.58
2023-05-10T05:11:10.662Z,1006.54
2023-05-10T05:12:55.731Z,1006.61
2023-05-10T05:14:40.675Z,1006.54
2023-05-10T05:16:25.726Z,1006.55
2023-05-10T05:18:10.776Z,1006.69
2023-05-10T05:19:55.699Z,1006.62
2023-05-10T05:21:40.996Z,1006.64
2023-05-10T05:23:25.806Z,1006.75
2023-05-10T05:25:10.741Z,1006.64
2023-05-10T05:26:55.700Z,1006.82
2023-05-10T05:28:40.747Z,1006.7
2023-05-10T05:30:25.697Z,1006.64
2023-05-10T05:32:10.741Z,1006.72
2023-05-10T05:33:55.763Z,1006.8
2023-05-10T05:35:40.716Z,1006.72
2023-05-10T05:37:25.714Z,1006.8
2023-05-10T05:39:10.792Z,1006.88
2023-05-10T05:40:55.748Z,1006.83
2023-05-10T05:42:40.749Z,1006.8
2023-05-10T05:44:25.740Z,1006.88
2023-05-10T05:46:10.745Z,1006.89
2023-05-10T05:47:55.823Z,1006.95
2023-05-10T05:49:40.782Z,1006.9
2023-05-10T05:51:25.732Z,1006.88
2023-05-10T05:53:10.757Z,1006.94
2023-05-10T05:54:55.806Z,1006.93
2023-05-10T05:56:40.771Z,1006.98
2023-05-10T05:58:25.749Z,1006.96
2023-05-10T06:00:10.829Z,1006.97
2023-05-10T06:01:55.825Z,1006.98
2023-05-10T06:03:40.890Z,1006.96
2023-05-10T06:05:25.800Z,1006.92
2023-05-10T06:07:10.790Z,1007.01
2023-05-10T06:08:55.775Z,1007.05
2023-05-10T06:10:40.836Z,1007.05
2023-05-10T06:12:25.801Z,1007.03
2023-05-10T06:14:10.782Z,1007.03
2023-05-10T06:15:55.818Z,1007.13
2023-05-10T06:17:40.812Z,1007.08
2023-05-10T06:19:25.791Z,1007.14
2023-05-10T06:21:10.833Z,1007.13
2023-05-10T06:22:55.798Z,1007.23
2023-05-10T06:24:40.823Z,1007.22
2023-05-10T06:26:25.854Z,1007.27
2023-05-10T06:28:10.847Z,1007.14
2023-05-10T06:29:59.340Z,1007.27
2023-05-10T06:31:40.964Z,1007.26
2023-05-10T06:33:25.836Z,1007.27
2023-05-10T06:35:10.807Z,1007.24
2023-05-10T06:36:55.839Z,1007.26
2023-05-10T06:38:40.824Z,1007.23
2023-05-10T06:40:25.840Z,1007.24
2023-05-10T06:42:10.890Z,1007.31
2023-05-10T06:43:55.855Z,1007.28
2023-05-10T06:45:40.840Z,1007.34
2023-05-10T06:47:25.917Z,1007.26
2023-05-10T06:49:10.840Z,1007.37
2023-05-10T06:50:55.834Z,1007.35
2023-05-10T06:52:40.863Z,1007.35
2023-05-10T06:54:25.819Z,1007.31
2023-05-10T06:56:10.822Z,1007.34
2023-05-10T06:57:55.879Z,1007.29
2023-05-10T06:59:40.889Z,1007.36
2023-05-10T07:01:25.900Z,1007.39
2023-05-10T07:03:10.909Z,1007.37
2023-05-10T07:04:55.924Z,1007.43
2023-05-10T07:06:40.889Z,1007.49
2023-05-10T07:08:25.936Z,1007.45
2023-05-10T07:10:10.855Z,1007.56
2023-05-10T07:11:55.881Z,1007.48
2023-05-10T07:13:40.938Z,1007.46
2023-05-10T07:15:25.894Z,1007.49
2023-05-10T07:17:10.952Z,1007.49
2023-05-10T07:18:55.932Z,1007.48
2023-05-10T07:20:40.894Z,1007.49
2023-05-10T07:22:25.867Z,1007.39
2023-05-10T07:24:10.912Z,1007.38
2023-05-10T07:25:55.882Z,1007.41
2023-05-10T07:27:40.870Z,1007.52
2023-05-10T07:29:25.969Z,1007.43
2023-05-10T07:31:11.007Z,1007.47
2023-05-10T07:32:55.961Z,1007.5
2023-05-10T07:34:40.927Z,1007.51
2023-05-10T07:36:25.891Z,1007.43
2023-05-10T07:38:10.896Z,1007.53
2023-05-10T07:39:55.976Z,1007.54
2023-05-10T07:41:40.888Z,1007.47
2023-05-10T07:43:25.884Z,1007.57
2023-05-10T07:45:10.959Z,1007.53
2023-05-10T07:46:55.972Z,1007.63
2023-05-10T07:48:40.894Z,1007.61
2023-05-10T07:50:25.912Z,1007.57
2023-05-10T07:52:10.919Z,1007.56
2023-05-10T07:53:55.931Z,1007.6
2023-05-10T07:55:40.978Z,1007.62
2023-05-10T07:57:25.917Z,1007.71
2023-05-10T07:59:12.642Z,1007.64
2023-05-10T08:00:55.934Z,1007.63
2023-05-10T08:02:40.966Z,1007.65
2023-05-10T08:04:25.966Z,1007.69
2023-05-10T08:06:10.991Z,1007.77
2023-05-10T08:07:55.945Z,1007.68
2023-05-10T08:09:40.943Z,1007.71
2023-05-10T08:11:26.201Z,1007.71
2023-05-10T08:13:10.952Z,1007.75
2023-05-10T08:14:55.932Z,1007.73
2023-05-10T08:16:40.979Z,1007.73
2023-05-10T08:18:26.280Z,1007.81
2023-05-10T08:20:10.956Z,1007.84
2023-05-10T08:21:55.953Z,1007.81
2023-05-10T08:23:40.973Z,1007.74
2023-05-10T08:25:25.966Z,1007.78
2023-05-10T08:27:11.000Z,1007.79
2023-05-10T08:28:55.955Z,1007.93
2023-05-10T08:30:40.961Z,1007.87
2023-05-10T08:32:26.305Z,1007.9
2023-05-10T08:34:11.010Z,1007.96
2023-05-10T08:35:55.978Z,1008.02
2023-05-10T08:37:41.036Z,1007.97
2023-05-10T08:39:30.193Z,1007.97
2023-05-10T08:41:11.266Z,1007.95
2023-05-10T08:42:56.040Z,1007.92
2023-05-10T08:44:40.981Z,1008.03
2023-05-10T08:46:26.060Z,1008.02
2023-05-10T08:48:11.099Z,1008.04
2023-05-10T08:49:56.076Z,1008.06
2023-05-10T08:51:41.821Z,1008.1
2023-05-10T08:53:26.031Z,1008.13
2023-05-10T08:55:11.023Z,1008.18
2023-05-10T08:56:56.013Z,1008.25
2023-05-10T08:58:41.331Z,1008.2
2023-05-10T09:00:26.061Z,1008.31
2023-05-10T09:02:11.305Z,1008.31
2023-05-10T09:03:56.072Z,1008.35
2023-05-10T09:05:41.060Z,1008.33
2023-05-10T09:07:26.037Z,1008.36
2023-05-10T09:09:11.047Z,1008.36
2023-05-10T09:10:56.057Z,1008.36
2023-05-10T09:12:41.057Z,1008.43
2023-05-10T09:14:26.076Z,1008.29
2023-05-10T09:16:20.893Z,1008.44
2023-05-10T09:17:56.115Z,1008.39
2023-05-10T09:19:41.068Z,1008.48
2023-05-10T09:21:26.116Z,1008.48
2023-05-10T09:23:11.089Z,1008.5
2023-05-10T09:24:56.401Z,1008.47
2023-05-10T09:26:41.053Z,1008.52
2023-05-10T09:28:26.109Z,1008.51
2023-05-10T09:30:11.134Z,1008.62
2023-05-10T09:31:56.087Z,1008.57
2023-05-10T09:33:41.070Z,1008.69
2023-05-10T09:35:27.974Z,1008.61
2023-05-10T09:37:11.118Z,1008.68
2023-05-10T09:38:56.072Z,1008.67
2023-05-10T09:40:41.435Z,1008.75
2023-05-10T09:42:26.081Z,1008.87
2023-05-10T09:44:11.092Z,1008.76
2023-05-10T09:45:56.474Z,1008.77
2023-05-10T09:47:41.101Z,1008.76
2023-05-10T09:49:26.106Z,1008.78
2023-05-10T09:51:11.119Z,1008.8
2023-05-10T09:52:56.110Z,1008.87
2023-05-10T09:54:41.109Z,1008.78
2023-05-10T09:56:26.146Z,1008.78
2023-05-10T09:58:11.723Z,1008.84
2023-05-10T09:59:56.129Z,1008.78
2023-05-10T10:01:41.145Z,1008.82
2023-05-10T10:03:26.915Z,1008.8
2023-05-10T10:05:11.177Z,1008.83
2023-05-10T10:06:56.181Z,1008.86
2023-05-10T10:08:41.156Z,1008.86
2023-05-10T10:10:26.145Z,1008.81
2023-05-10T10:12:11.168Z,1008.87
2023-05-10T10:13:56.129Z,1008.8
2023-05-10T10:15:41.201Z,1008.88
2023-05-10T10:17:26.241Z,1008.89
2023-05-10T10:19:11.184Z,1008.84
2023-05-10T10:20:56.147Z,1008.92
2023-05-10T10:22:41.188Z,1008.83
2023-05-10T10:24:26.179Z,1008.95
2023-05-10T10:26:11.806Z,1008.89
2023-05-10T10:27:56.244Z,1008.91
2023-05-10T10:29:41.150Z,1008.95
2023-05-10T10:31:26.250Z,1009.04
2023-05-10T10:33:20.469Z,1009.05
2023-05-10T10:34:56.185Z,1008.97
2023-05-10T10:36:41.189Z,1008.97
2023-05-10T10:38:26.231Z,1008.98
2023-05-10T10:40:11.216Z,1008.9
2023-05-10T10:41:56.183Z,1009.06
2023-05-10T10:43:41.247Z,1009.04
2023-05-10T10:45:26.186Z,1009.05
2023-05-10T10:47:11.245Z,1008.96
2023-05-10T10:48:56.319Z,1008.99
2023-05-10T10:50:41.236Z,1008.98
2023-05-10T10:52:26.195Z,1008.96
2023-05-10T10:54:11.264Z,1009.02
2023-05-10T10:55:56.230Z,1009.08
2023-05-10T10:57:41.841Z,1009.04
2023-05-10T10:59:26.234Z,1009.08
2023-05-10T11:01:11.301Z,1009.04
2023-05-10T11:02:56.271Z,1009.06
2023-05-10T11:04:41.349Z,1008.99
2023-05-10T11:06:26.210Z,1009.1
2023-05-10T11:08:11.220Z,1009.07
2023-05-10T11:09:56.266Z,1009.09
2023-05-10T11:11:41.272Z,1009.13
2023-05-10T11:13:26.219Z,1009.1
2023-05-10T11:15:11.287Z,1009.15
2023-05-10T11:16:56.257Z,1009.18
2023-05-10T11:18:41.236Z,1009.23
2023-05-10T11:20:26.299Z,1009.08
2023-05-10T11:22:11.550Z,1009.18
2023-05-10T11:23:56.218Z,1009.19
2023-05-10T11:25:41.268Z,1009.19
2023-05-10T11:27:26.291Z,1009.26
2023-05-10T11:29:11.282Z,1009.25
2023-05-10T11:30:56.328Z,1009.2
2023-05-10T11:32:41.272Z,1009.29
2023-05-10T11:34:26.249Z,1009.26
2023-05-10T11:36:11.323Z,1009.31
2023-05-10T11:37:56.335Z,1009.23
2023-05-10T11:39:41.281Z,1009.34
2023-05-10T11:41:26.595Z,1009.4
2023-05-10T11:43:11.330Z,1009.23
2023-05-10T11:44:56.275Z,1009.29
2023-05-10T11:46:41.401Z,1009.28
2023-05-10T11:48:26.285Z,1009.39
2023-05-10T11:50:11.296Z,1009.37
2023-05-10T11:51:56.311Z,1009.33
2023-05-10T11:53:41.274Z,1009.32
2023-05-10T11:55:26.578Z,1009.36
2023-05-10T11:57:11.618Z,1009.36
2023-05-10T11:58:56.332Z,1009.31
2023-05-10T12:00:41.329Z,1009.29
2023-05-10T12:02:26.380Z,1009.37
2023-05-10T12:04:11.451Z,1009.31
2023-05-10T12:05:56.310Z,1009.33
2023-05-10T12:07:41.300Z,1009.26
2023-05-10T12:09:35.878Z,1009.35
2023-05-10T12:11:11.360Z,1009.26
2023-05-10T12:12:56.361Z,1009.26
2023-05-10T12:14:41.358Z,1009.29
2023-05-10T12:16:26.337Z,1009.15
2023-05-10T12:18:11.376Z,1009.24
2023-05-10T12:19:56.313Z,1009.31
2023-05-10T12:21:41.309Z,1009.23
2023-05-10T12:23:26.383Z,1009.24
2023-05-10T12:25:11.334Z,1009.16
2023-05-10T12:26:56.359Z,1009.23
2023-05-10T12:28:41.352Z,1009.21
2023-05-10T12:30:26.396Z,1009.25
2023-05-10T12:32:11.388Z,1009.2
2023-05-10T12:33:56.405Z,1009.18
2023-05-10T12:35:43.057Z,1009.22
2023-05-10T12:37:26.517Z,1009.2
2023-05-10T12:39:11.382Z,1009.26
2023-05-10T12:40:56.379Z,1009.26
2023-05-10T12:42:41.367Z,1009.3
2023-05-10T12:44:26.410Z,1009.3
2023-05-10T12:46:11.419Z,1009.34
2023-05-10T12:47:56.434Z,1009.36
2023-05-10T12:49:41.423Z,1009.32
2023-05-10T12:51:26.356Z,1009.2
2023-05-10T12:53:11.388Z,1009.26
2023-05-10T12:54:56.407Z,1009.26
2023-05-10T12:56:41.671Z,1009.3
2023-05-10T13:00:11.458Z,1009.28
2023-05-10T13:01:56.408Z,1009.24
2023-05-10T13:03:41.375Z,1009.3
2023-05-10T13:05:26.406Z,1009.41
2023-05-10T13:07:11.392Z,1009.36
2023-05-10T13:08:56.400Z,1009.37
2023-05-10T13:10:41.472Z,1009.43
2023-05-10T13:12:26.426Z,1009.43
2023-05-10T13:14:11.433Z,1009.46
2023-05-10T13:15:56.431Z,1009.47
2023-05-10T13:17:41.431Z,1009.32
2023-05-10T13:19:26.753Z,1009.37
2023-05-10T13:21:11.476Z,1009.37
2023-05-10T13:22:56.438Z,1009.44
2023-05-10T13:24:41.428Z,1009.43
2023-05-10T13:26:26.475Z,1009.43
2023-05-10T13:28:11.416Z,1009.4
2023-05-10T13:29:56.442Z,1009.49
2023-05-10T13:31:41.523Z,1009.39
2023-05-10T13:33:26.477Z,1009.44
2023-05-10T13:35:11.452Z,1009.43
2023-05-10T13:36:56.450Z,1009.52
2023-05-10T13:38:41.472Z,1009.43
2023-05-10T13:40:26.450Z,1009.43
2023-05-10T13:42:11.503Z,1009.46
2023-05-10T13:43:56.464Z,1009.5
2023-05-10T13:45:41.466Z,1009.41
2023-05-10T13:47:26.516Z,1009.39
2023-05-10T13:49:11.832Z,1009.34
2023-05-10T13:50:56.463Z,1009.42
2023-05-10T13:52:41.558Z,1009.34
2023-05-10T13:54:26.533Z,1009.34
2023-05-10T13:56:11.490Z,1009.34
2023-05-10T13:57:56.521Z,1009.34
2023-05-10T13:59:41.478Z,1009.33
2023-05-10T14:01:26.514Z,1009.38
2023-05-10T14:03:11.611Z,1009.38
2023-05-10T14:04:56.523Z,1009.35
2023-05-10T14:06:41.514Z,1009.3
2023-05-10T14:08:26.532Z,1009.31
2023-05-10T14:10:11.530Z,1009.23
2023-05-10T14:11:56.525Z,1009.31
2023-05-10T14:13:41.572Z,1009.26
2023-05-10T14:15:26.502Z,1009.33
2023-05-10T14:17:12.319Z,1009.2
2023-05-10T14:18:56.892Z,1009.26
2023-05-10T14:20:41.549Z,1009.28
2023-05-10T14:22:26.502Z,1009.25
2023-05-10T14:24:11.570Z,1009.23
2023-05-10T14:25:56.563Z,1009.25
2023-05-10T14:27:41.488Z,1009.26
2023-05-10T14:29:26.546Z,1009.18
2023-05-10T14:31:11.540Z,1009.24
2023-05-10T14:32:56.575Z,1009.21
2023-05-10T14:34:41.527Z,1009.18
2023-05-10T14:36:26.705Z,1009.28
2023-05-10T14:38:11.836Z,1009.25
2023-05-10T14:39:56.590Z,1009.29
2023-05-10T14:41:41.567Z,1009.32
2023-05-10T14:43:26.639Z,1009.33
2023-05-10T14:45:11.560Z,1009.24
2023-05-10T14:46:56.590Z,1009.25
2023-05-10T14:48:41.567Z,1009.21
2023-05-10T14:50:36.294Z,1009.22
2023-05-10T14:52:11.660Z,1009.29
2023-05-10T14:53:56.595Z,1009.18
2023-05-10T14:55:41.618Z,1009.34
2023-05-10T14:57:26.618Z,1009.19
2023-05-10T14:59:11.590Z,1009.25
2023-05-10T15:00:56.650Z,1009.28
2023-05-10T15:02:41.675Z,1009.22
2023-05-10T15:04:28.359Z,1009.21
2023-05-10T15:06:11.599Z,1009.21
2023-05-10T15:07:56.572Z,1009.25
2023-05-10T15:09:41.565Z,1009.23
2023-05-10T15:11:26.628Z,1009.32
2023-05-10T15:13:11.561Z,1009.38
2023-05-10T15:14:56.612Z,1009.57
2023-05-10T15:16:41.612Z,1009.52
2023-05-10T15:18:26.597Z,1009.53
2023-05-10T15:20:11.609Z,1009.7
2023-05-10T15:21:56.657Z,1009.63
2023-05-10T15:23:41.656Z,1009.55
2023-05-10T15:25:26.611Z,1009.62
2023-05-10T15:27:11.678Z,1009.56
2023-05-10T15:28:56.582Z,1009.69
2023-05-10T15:30:41.618Z,1009.62
2023-05-10T15:32:26.669Z,1009.69
2023-05-10T15:34:11.620Z,1009.65
2023-05-10T15:35:56.600Z,1009.69
2023-05-10T15:37:41.960Z,1009.65
2023-05-10T15:39:26.649Z,1009.81
2023-05-10T15:41:11.633Z,1009.75
2023-05-10T15:42:56.663Z,1009.73
2023-05-10T15:44:41.617Z,1009.87
2023-05-10T15:46:26.618Z,1009.92
2023-05-10T15:48:12.624Z,1009.89
2023-05-10T15:49:56.622Z,1009.91
2023-05-10T15:51:41.651Z,1009.96
2023-05-10T15:53:26.707Z,1009.93
2023-05-10T15:55:11.653Z,1009.97
2023-05-10T15:56:56.924Z,1009.93
2023-05-10T15:58:41.722Z,1009.97
2023-05-10T16:00:26.637Z,1010.01
2023-05-10T16:02:11.754Z,1009.95
2023-05-10T16:03:56.668Z,1010
2023-05-10T16:05:41.622Z,1009.87
2023-05-10T16:07:26.689Z,1009.95
2023-05-10T16:09:11.661Z,1009.96
2023-05-10T16:10:56.648Z,1010.08
2023-05-10T16:12:41.649Z,1010.1
2023-05-10T16:14:26.794Z,1010.16
2023-05-10T16:16:11.723Z,1010.03
2023-05-10T16:17:56.715Z,1010.12
2023-05-10T16:19:42.021Z,1010.15
2023-05-10T16:21:26.963Z,1010.06
2023-05-10T16:23:11.635Z,1010.04
2023-05-10T16:24:56.695Z,1010.14
2023-05-10T16:26:41.698Z,1010.15
2023-05-10T16:28:26.687Z,1010.02
2023-05-10T16:30:11.724Z,1010.07
2023-05-10T16:31:56.660Z,1010.11
2023-05-10T16:33:41.668Z,1010.05
2023-05-10T16:35:26.759Z,1010.08
2023-05-10T16:37:11.992Z,1010.15
2023-05-10T16:38:56.681Z,1010.06
2023-05-10T16:40:41.754Z,1010.19
2023-05-10T16:42:26.718Z,1010.2
2023-05-10T16:44:12.024Z,1010.27
2023-05-10T16:45:56.812Z,1010.34
2023-05-10T16:47:41.713Z,1010.24
2023-05-10T16:49:26.720Z,1010.19
2023-05-10T16:51:11.781Z,1010.28
2023-05-10T16:52:56.726Z,1010.23
2023-05-10T16:54:41.701Z,1010.26
2023-05-10T16:56:26.785Z,1010.25
2023-05-10T16:58:11.819Z,1010.31
2023-05-10T16:59:56.725Z,1010.27
2023-05-10T17:01:42.517Z,1010.33
2023-05-10T17:03:26.796Z,1010.31
2023-05-10T17:05:11.729Z,1010.3
2023-05-10T17:06:56.733Z,1010.37
2023-05-10T17:08:41.761Z,1010.3
2023-05-10T17:10:26.704Z,1010.44
2023-05-10T17:12:11.773Z,1010.33
2023-05-10T17:13:56.779Z,1010.32
2023-05-10T17:15:41.807Z,1010.41
2023-05-10T17:17:26.806Z,1010.35
2023-05-10T17:19:11.771Z,1010.43
2023-05-10T17:20:56.722Z,1010.37
2023-05-10T17:22:41.812Z,1010.33
2023-05-10T17:24:26.751Z,1010.38
2023-05-10T17:26:11.755Z,1010.41
2023-05-10T17:27:57.086Z,1010.33
2023-05-10T17:29:41.782Z,1010.41
2023-05-10T17:31:26.780Z,1010.37
2023-05-10T17:33:11.857Z,1010.45
2023-05-10T17:34:57.068Z,1010.39
2023-05-10T17:36:41.771Z,1010.42
2023-05-10T17:38:27.112Z,1010.4
2023-05-10T17:40:11.782Z,1010.48
2023-05-10T17:41:56.788Z,1010.49
2023-05-10T17:43:41.815Z,1010.38
2023-05-10T17:45:26.775Z,1010.47
2023-05-10T17:47:11.755Z,1010.53
2023-05-10T17:48:56.821Z,1010.57
2023-05-10T17:50:41.781Z,1010.56
2023-05-10T17:52:26.791Z,1010.47
2023-05-10T17:54:11.784Z,1010.41
2023-05-10T17:55:57.060Z,1010.41
2023-05-10T17:57:42.106Z,1010.43
2023-05-10T17:59:27.144Z,1010.44
2023-05-10T18:01:11.837Z,1010.36
2023-05-10T18:02:56.797Z,1010.38
2023-05-10T18:04:41.886Z,1010.4
2023-05-10T18:06:26.785Z,1010.41
2023-05-10T18:08:11.793Z,1010.36
2023-05-10T18:09:56.863Z,1010.41
2023-05-10T18:11:41.803Z,1010.43
2023-05-10T18:13:26.832Z,1010.46
2023-05-10T18:15:11.857Z,1010.46
2023-05-10T18:16:56.866Z,1010.51
2023-05-10T18:18:41.851Z,1010.47
2023-05-10T18:20:26.865Z,1010.48
2023-05-10T18:22:11.836Z,1010.55
2023-05-10T18:23:56.812Z,1010.54
2023-05-10T18:25:41.860Z,1010.63
2023-05-10T18:27:26.826Z,1010.75
2023-05-10T18:29:11.821Z,1010.66
2023-05-10T18:30:56.898Z,1010.68
2023-05-10T18:32:41.910Z,1010.66
2023-05-10T18:34:27.147Z,1010.61
2023-05-10T18:36:11.869Z,1010.67
2023-05-10T18:37:56.843Z,1010.69
2023-05-10T18:39:41.862Z,1010.65
2023-05-10T18:41:26.949Z,1010.69
2023-05-10T18:43:11.860Z,1010.64
2023-05-10T18:44:56.886Z,1010.68
2023-05-10T18:46:41.974Z,1010.7
2023-05-10T18:48:26.885Z,1010.71
2023-05-10T18:50:11.890Z,1010.83
2023-05-10T18:51:56.872Z,1010.78
2023-05-10T18:53:42.157Z,1010.78
2023-05-10T18:55:26.882Z,1011
2023-05-10T18:57:11.910Z,1010.9
2023-05-10T18:58:56.910Z,1010.91
2023-05-10T19:00:41.895Z,1010.88
2023-05-10T19:02:26.951Z,1010.85
2023-05-10T19:04:11.904Z,1010.93
2023-05-10T19:05:56.904Z,1010.96
2023-05-10T19:07:41.929Z,1010.9
2023-05-10T19:09:26.904Z,1010.88
2023-05-10T19:11:12.116Z,1011.04
2023-05-10T19:12:56.924Z,1011.02
2023-05-10T19:14:41.908Z,1010.92
2023-05-10T19:16:27.506Z,1010.95
2023-05-10T19:18:11.891Z,1010.94
2023-05-10T19:19:56.954Z,1010.99
2023-05-10T19:21:41.882Z,1010.99
2023-05-10T19:23:29.132Z,1010.92
2023-05-10T19:25:11.935Z,1011.07
2023-05-10T19:26:57.025Z,1011.1
2023-05-10T19:28:41.977Z,1011.05
2023-05-10T19:30:26.911Z,1011.08
2023-05-10T19:32:11.924Z,1011.15
2023-05-10T19:33:58.866Z,1011.14
2023-05-10T19:35:41.941Z,1011.18
2023-05-10T19:37:26.924Z,1011.05
2023-05-10T19:39:11.915Z,1011.05
2023-05-10T19:40:56.952Z,1010.96
2023-05-10T19:42:41.942Z,1011.13
2023-05-10T19:44:26.967Z,1011.08
2023-05-10T19:46:12.777Z,1011.09
2023-05-10T19:47:57.108Z,1011.07
2023-05-10T19:49:41.992Z,1011.2
2023-05-10T19:51:26.976Z,1011.05
2023-05-10T19:53:11.954Z,1011.14
2023-05-10T19:54:57.281Z,1011.06
2023-05-10T19:56:41.969Z,1011.16
2023-05-10T19:58:27.246Z,1011.04
2023-05-10T20:00:12.040Z,1011.16
2023-05-10T20:01:56.941Z,1011.05
2023-05-10T20:03:41.996Z,1011.1
2023-05-10T20:05:27.042Z,1011.05
2023-05-10T20:07:11.994Z,1011.16
2023-05-10T20:08:56.965Z,1011.1
2023-05-10T20:10:42.310Z,1011.08
2023-05-10T20:12:26.956Z,1011.03
2023-05-10T20:14:11.993Z,1011.11
2023-05-10T20:15:57.032Z,1011.04
2023-05-10T20:17:41.969Z,1011.06
2023-05-10T20:19:26.992Z,1011.01
2023-05-10T20:21:12.045Z,1011.01
2023-05-10T20:22:57.023Z,1011.05
2023-05-10T20:24:41.985Z,1011.01
2023-05-10T20:26:27.057Z,1011.06
2023-05-10T20:28:12.016Z,1011.05
2023-05-10T20:29:57.003Z,1010.91
2023-05-10T20:31:42.116Z,1011.11
2023-05-10T20:33:27.007Z,1010.95
2023-05-10T20:35:12.009Z,1011.03
2023-05-10T20:36:57.092Z,1011.14
2023-05-10T20:38:42.035Z,1011.1
2023-05-10T20:40:27.017Z,1011.11
2023-05-10T20:42:12.125Z,1011.15
2023-05-10T20:43:57.074Z,1011.03
2023-05-10T20:45:42.020Z,1011.04
2023-05-10T20:47:27.102Z,1011.04
2023-05-10T20:49:12.046Z,1011.07
2023-05-10T20:50:57.106Z,1011.14
2023-05-10T20:52:42.105Z,1011.1
2023-05-10T20:54:27.071Z,1011.08
2023-05-10T20:56:12.042Z,1011.17
2023-05-10T20:57:57.368Z,1011.13
2023-05-10T20:59:42.030Z,1011.22
2023-05-10T21:01:27.042Z,1011.21
2023-05-10T21:03:12.115Z,1011.22
2023-05-10T21:04:58.046Z,1011.22
2023-05-10T21:06:42.068Z,1011.25
2023-05-10T21:08:27.059Z,1011.25
2023-05-10T21:10:12.405Z,1011.24
2023-05-10T21:11:57.062Z,1011.27
2023-05-10T21:13:42.146Z,1011.27
2023-05-10T21:15:27.081Z,1011.24
2023-05-10T21:17:12.075Z,1011.2
2023-05-10T21:18:57.152Z,1011.22
2023-05-10T21:20:42.070Z,1011.21
2023-05-10T21:22:27.073Z,1011.27
2023-05-10T21:24:12.128Z,1011.24
2023-05-10T21:25:57.127Z,1011.22
2023-05-10T21:27:42.374Z,1011.17
2023-05-10T21:29:27.135Z,1011.21
2023-05-10T21:31:12.146Z,1011.15
2023-05-10T21:32:57.143Z,1011.24
2023-05-10T21:34:42.238Z,1011.21
2023-05-10T21:36:27.078Z,1011.24
2023-05-10T21:38:12.126Z,1011.15
2023-05-10T21:39:57.124Z,1011.28
2023-05-10T21:41:42.112Z,1011.24
2023-05-10T21:43:27.103Z,1011.36
2023-05-10T21:45:12.167Z,1011.28
2023-05-10T21:46:57.125Z,1011.37
2023-05-10T21:48:42.408Z,1011.35
2023-05-10T21:50:27.137Z,1011.31
2023-05-10T21:52:12.149Z,1011.27
2023-05-10T21:53:57.115Z,1011.28
2023-05-10T21:55:42.231Z,1011.32
2023-05-10T21:57:27.164Z,1011.22
2023-05-10T21:59:12.452Z,1011.25
2023-05-10T22:00:57.280Z,1011.34
2023-05-10T22:02:42.218Z,1011.21
2023-05-10T22:04:27.160Z,1011.22
2023-05-10T22:06:12.222Z,1011.32
2023-05-10T22:07:57.172Z,1011.34
2023-05-10T22:09:42.150Z,1011.24
2023-05-10T22:11:27.182Z,1011.23
2023-05-10T22:13:12.210Z,1011.22
2023-05-10T22:15:09.257Z,1011.23
2023-05-10T22:16:42.228Z,1011.32
2023-05-10T22:18:27.238Z,1011.28
2023-05-10T22:20:12.182Z,1011.26
2023-05-10T22:21:57.216Z,1011.36
2023-05-10T22:23:42.212Z,1011.32
2023-05-10T22:25:27.196Z,1011.28
2023-05-10T22:27:12.243Z,1011.22
2023-05-10T22:28:57.282Z,1011.31
2023-05-10T22:30:42.170Z,1011.4
2023-05-10T22:32:27.235Z,1011.41
2023-05-10T22:34:12.542Z,1011.34
2023-05-10T22:35:57.204Z,1011.43
2023-05-10T22:37:42.258Z,1011.44
2023-05-10T22:39:27.233Z,1011.38
2023-05-10T22:41:12.217Z,1011.41
2023-05-10T22:42:57.224Z,1011.31
2023-05-10T22:44:42.228Z,1011.4
2023-05-10T22:46:27.239Z,1011.34
2023-05-10T22:48:12.310Z,1011.41
2023-05-10T22:49:57.258Z,1011.48
2023-05-10T22:51:42.240Z,1011.36
2023-05-10T22:53:27.267Z,1011.46
2023-05-10T22:55:12.245Z,1011.41
2023-05-10T22:56:57.225Z,1011.42
2023-05-10T22:58:42.299Z,1011.34
2023-05-10T23:00:27.266Z,1011.47
2023-05-10T23:02:12.943Z,1011.43
2023-05-10T23:03:57.301Z,1011.45
2023-05-10T23:05:42.260Z,1011.4
2023-05-10T23:07:27.269Z,1011.42
2023-05-10T23:09:12.301Z,1011.51
2023-05-10T23:10:57.271Z,1011.4
2023-05-10T23:12:42.270Z,1011.42
2023-05-10T23:14:27.290Z,1011.38
2023-05-10T23:16:12.326Z,1011.41
2023-05-10T23:17:57.306Z,1011.42
2023-05-10T23:19:42.364Z,1011.33
2023-05-10T23:21:28.307Z,1011.41
2023-05-10T23:23:12.264Z,1011.45
2023-05-10T23:24:57.342Z,1011.36
2023-05-10T23:26:42.319Z,1011.36
2023-05-10T23:28:27.294Z,1011.36
2023-05-10T23:30:12.343Z,1011.38
2023-05-10T23:31:57.342Z,1011.41
2023-05-10T23:33:42.595Z,1011.46
2023-05-10T23:35:27.339Z,1011.29
2023-05-10T23:37:12.295Z,1011.37
2023-05-10T23:38:57.290Z,1011.48
2023-05-10T23:40:42.337Z,1011.43
2023-05-10T23:42:27.298Z,1011.41
2023-05-10T23:44:12.323Z,1011.3
2023-05-10T23:45:57.454Z,1011.47
2023-05-10T23:47:42.377Z,1011.41
2023-05-10T23:49:27.340Z,1011.38
2023-05-10T23:51:12.378Z,1011.41
2023-05-10T23:52:57.318Z,1011.4
2023-05-10T23:54:44.028Z,1011.31
2023-05-10T23:56:27.382Z,1011.45
2023-05-10T23:58:12.331Z,1011.44
2023-05-10T23:59:57.318Z,1011.36
